Cameron, WI (54822)

9:04 AM CDT en Agosto 29, 2014 (GMT -0500)
Rice Lake Regional-Carl's | Change Station
CLOSE
Current Station
Aeropuerto
Location: Rice Lake,
Altura: 1106 ft
Estaciones meteorológicas cercanas

Alt 1106 ft 45.42 °N, 91.78 °W | Updated 9 minutes ago

Overcast
Nublado
61 ° F
Sensación térmica 61 ° F
N
7
Viento Variable Viento desde SE

Hoy
Alta -- | Baja -- ° F
--% Posibilidad de precipitaciones
Ayer
Alta -- | Baja -- ° F
Precip. -- pul
6:24 AM 7:49 PM
Creciente, 14% visible
Presión 29.86 pul
Visibilidad 4.0 Millas
Nubes Nublado 300 ft
Punto de rocío 59 ° F
Humedad 95%
Precipitaciones 0.00 pul
Espesor de la nieve No disponible.
UV 1 de una escala de 12
Polen 1.10 de una escala de 12
Calidad del aire No disponible.
Flu Activity No disponible.
METAR KRPD 291355Z AUTO 13006KT 4SM BR OVC003 16/15 A2986 RMK AO2 LTG DSNT NW T01590151

More Conditions Fewer Conditions

Presión 29.86 pul
Visibilidad 4.0 Millas
Nubes Nublado 300 ft
Punto de rocío 59 ° F
Humedad 95%
Precipitaciones 0.00 pul
Espesor de la nieve No disponible.
UV 1 de una escala de 12
Polen 1.10 de una escala de 12
Calidad del aire No disponible.
Flu Activity No disponible.
METAR KRPD 291355Z AUTO 13006KT 4SM BR OVC003 16/15 A2986 RMK AO2 LTG DSNT NW T01590151

More Conditions Fewer Conditions

10-Day Weather Forecast

Almanac

Astronomía

Aug. 29, 2014 Salida Puesta
Hora real 6:24 AM CDT 7:49 PM CDT
Crepúsculo civil 5:53 AM CDT 8:20 PM CDT
Crepúsculo náutico 5:16 AM CDT 8:57 PM CDT
Crepúsculo astronómico 4:36 AM CDT 9:37 PM CDT
Luna 10:27 AM CDT 9:33 PM CDT
Horas de luz 14h 26m
Horas de luz
13h 25m
Tomorrow will be 3m 2s shorter.
Creciente, 14% of the Moon is Illuminated
Hoy
Creciente
Sep 2
Cuarto creciente
Sep 8
Luna llena
Sep 15
Cuarto menguante
Sep 24
Nueva

Extremos de hoy

Máximos del estado Bajos del estado

Community

WunderPhotos

Upload Photos

1,748,240 ¡fotos cargadas!

Nearby

Grosos de nieve

Estación Profundido Altura
No tenemos constancia de nieve nueva.

Actividad de terremotos

Ciudad Distance Mag. Tiempo y dato
No hay informes recientes de la actividad sísmica.
Magnitud mínima muestra es 2,5.

Temperaturas de aguas costeras

Lugar Temperatura
Sin partes meteorológicos de las estaciones

Estaciones meteorológicas cercanas